Haverhill, Florida
Current Conditions -  °F | °C
As of 12:53 AM on Thursday 23 Oct 2014 (Local Time) from KPBI Reporting Station
Broken Clouds Broken Clouds  
Wind Chill: 79°   Ceiling: 21000
Heat Index: 82°   Visibility: 10mi
Dew Point: 69°   Wind: 7mph
Humidity: 72%   Direction: 20°NNE
Pressure: 29.91"   Gusts: NA
Location:  26.6599°N, 80.1276°W
Report Text: KPBI 230453Z 02006KT 10SM SCT038 SCT044 BKN210 26/21 A2991 RMK AO2 SLP127 T02610206 402830206
Loading
Personal Weather Stations






























Interactive Weather Map
Tropical Storm Tracking
New forecast layout! Learn more

10-Day Weather Forecast

Advertisements
Track Severe Weather on mobile